sensor_id;sensor_type;location;lat;lon;timestamp;P1;durP1;ratioP1;P2;durP2;ratioP2
14748;SDS011;7466;53.574;9.976;2023-03-02T00:00:57;42.63;;;23.03;;
14748;SDS011;7466;53.574;9.976;2023-03-02T00:03:26;39.70;;;22.93;;
14748;SDS011;7466;53.574;9.976;2023-03-02T00:05:55;40.53;;;22.87;;
14748;SDS011;7466;53.574;9.976;2023-03-02T00:08:23;40.13;;;19.90;;
14748;SDS011;7466;53.574;9.976;2023-03-02T00:10:50;43.87;;;20.27;;
14748;SDS011;7466;53.574;9.976;2023-03-02T00:13:18;42.43;;;20.50;;
14748;SDS011;7466;53.574;9.976;2023-03-02T00:15:45;34.50;;;20.30;;
14748;SDS011;7466;53.574;9.976;2023-03-02T00:18:12;37.37;;;20.20;;
14748;SDS011;7466;53.574;9.976;2023-03-02T00:20:39;43.03;;;19.93;;
14748;SDS011;7466;53.574;9.976;2023-03-02T00:23:07;33.13;;;19.27;;
14748;SDS011;7466;53.574;9.976;2023-03-02T00:25:34;41.10;;;19.83;;
14748;SDS011;7466;53.574;9.976;2023-03-02T00:28:01;34.97;;;19.90;;
14748;SDS011;7466;53.574;9.976;2023-03-02T00:30:28;29.20;;;18.57;;
14748;SDS011;7466;53.574;9.976;2023-03-02T00:32:55;32.83;;;17.90;;
14748;SDS011;7466;53.574;9.976;2023-03-02T00:35:30;26.67;;;17.57;;
14748;SDS011;7466;53.574;9.976;2023-03-02T00:38:01;30.50;;;18.93;;
14748;SDS011;7466;53.574;9.976;2023-03-02T00:40:29;27.63;;;17.57;;
14748;SDS011;7466;53.574;9.976;2023-03-02T00:43:02;28.63;;;17.23;;
14748;SDS011;7466;53.574;9.976;2023-03-02T00:45:29;26.50;;;17.30;;
14748;SDS011;7466;53.574;9.976;2023-03-02T00:47:56;26.77;;;16.70;;
14748;SDS011;7466;53.574;9.976;2023-03-02T00:50:24;24.27;;;16.47;;
14748;SDS011;7466;53.574;9.976;2023-03-02T00:52:51;25.93;;;17.57;;
14748;SDS011;7466;53.574;9.976;2023-03-02T00:55:18;23.67;;;16.13;;
14748;SDS011;7466;53.574;9.976;2023-03-02T00:57:46;25.07;;;15.10;;
14748;SDS011;7466;53.574;9.976;2023-03-02T01:00:19;22.30;;;14.60;;
14748;SDS011;7466;53.574;9.976;2023-03-02T01:02:47;23.90;;;13.93;;
14748;SDS011;7466;53.574;9.976;2023-03-02T01:05:14;25.13;;;14.27;;
14748;SDS011;7466;53.574;9.976;2023-03-02T01:07:41;24.10;;;14.67;;
14748;SDS011;7466;53.574;9.976;2023-03-02T01:10:09;19.47;;;14.30;;
14748;SDS011;7466;53.574;9.976;2023-03-02T01:12:36;22.60;;;15.33;;
14748;SDS011;7466;53.574;9.976;2023-03-02T01:15:05;23.47;;;15.83;;
14748;SDS011;7466;53.574;9.976;2023-03-02T01:17:33;21.63;;;14.13;;
14748;SDS011;7466;53.574;9.976;2023-03-02T01:20:00;24.17;;;15.63;;
14748;SDS011;7466;53.574;9.976;2023-03-02T01:22:28;31.00;;;15.57;;
14748;SDS011;7466;53.574;9.976;2023-03-02T01:24:55;22.30;;;15.40;;
14748;SDS011;7466;53.574;9.976;2023-03-02T01:27:22;20.83;;;14.43;;
14748;SDS011;7466;53.574;9.976;2023-03-02T01:29:49;21.53;;;14.57;;
14748;SDS011;7466;53.574;9.976;2023-03-02T01:32:18;23.33;;;15.00;;
14748;SDS011;7466;53.574;9.976;2023-03-02T01:34:45;25.30;;;15.23;;
14748;SDS011;7466;53.574;9.976;2023-03-02T01:37:11;24.57;;;14.50;;
14748;SDS011;7466;53.574;9.976;2023-03-02T01:39:38;25.10;;;14.70;;
14748;SDS011;7466;53.574;9.976;2023-03-02T01:42:05;20.07;;;14.23;;
14748;SDS011;7466;53.574;9.976;2023-03-02T01:44:42;21.63;;;15.17;;
14748;SDS011;7466;53.574;9.976;2023-03-02T01:47:19;20.30;;;14.07;;
14748;SDS011;7466;53.574;9.976;2023-03-02T01:49:49;18.17;;;14.10;;
14748;SDS011;7466;53.574;9.976;2023-03-02T01:52:19;21.00;;;14.23;;
14748;SDS011;7466;53.574;9.976;2023-03-02T01:54:48;20.80;;;14.40;;
14748;SDS011;7466;53.574;9.976;2023-03-02T01:57:18;21.03;;;13.67;;
14748;SDS011;7466;53.574;9.976;2023-03-02T01:59:51;19.77;;;13.90;;
14748;SDS011;7466;53.574;9.976;2023-03-02T02:02:24;20.77;;;15.10;;
14748;SDS011;7466;53.574;9.976;2023-03-02T02:04:52;21.93;;;14.77;;
14748;SDS011;7466;53.574;9.976;2023-03-02T02:07:20;20.37;;;14.70;;
14748;SDS011;7466;53.574;9.976;2023-03-02T02:09:48;20.03;;;14.30;;
14748;SDS011;7466;53.574;9.976;2023-03-02T02:12:17;21.80;;;13.93;;
14748;SDS011;7466;53.574;9.976;2023-03-02T02:14:45;24.30;;;14.63;;
14748;SDS011;7466;53.574;9.976;2023-03-02T02:17:13;23.00;;;14.40;;
14748;SDS011;7466;53.574;9.976;2023-03-02T02:19:55;24.20;;;15.77;;
14748;SDS011;7466;53.574;9.976;2023-03-02T02:22:35;20.10;;;14.47;;
14748;SDS011;7466;53.574;9.976;2023-03-02T02:25:15;23.27;;;14.73;;
14748;SDS011;7466;53.574;9.976;2023-03-02T02:27:49;23.53;;;13.70;;
14748;SDS011;7466;53.574;9.976;2023-03-02T02:30:17;24.33;;;14.10;;
14748;SDS011;7466;53.574;9.976;2023-03-02T02:32:46;20.40;;;14.63;;
14748;SDS011;7466;53.574;9.976;2023-03-02T02:35:15;19.80;;;13.43;;
14748;SDS011;7466;53.574;9.976;2023-03-02T02:37:46;21.33;;;13.90;;
14748;SDS011;7466;53.574;9.976;2023-03-02T02:40:17;18.67;;;12.90;;
14748;SDS011;7466;53.574;9.976;2023-03-02T02:42:47;19.27;;;13.40;;
14748;SDS011;7466;53.574;9.976;2023-03-02T02:45:17;25.67;;;13.47;;
14748;SDS011;7466;53.574;9.976;2023-03-02T02:47:46;18.03;;;12.97;;
14748;SDS011;7466;53.574;9.976;2023-03-02T02:50:20;16.30;;;12.47;;
14748;SDS011;7466;53.574;9.976;2023-03-02T02:55:40;20.50;;;14.03;;
14748;SDS011;7466;53.574;9.976;2023-03-02T02:58:15;21.53;;;14.30;;
14748;SDS011;7466;53.574;9.976;2023-03-02T03:00:54;20.50;;;14.70;;
14748;SDS011;7466;53.574;9.976;2023-03-02T03:03:24;22.10;;;13.47;;
14748;SDS011;7466;53.574;9.976;2023-03-02T03:05:56;27.73;;;13.03;;
14748;SDS011;7466;53.574;9.976;2023-03-02T03:11:26;21.87;;;14.00;;
14748;SDS011;7466;53.574;9.976;2023-03-02T03:13:58;20.97;;;13.47;;
14748;SDS011;7466;53.574;9.976;2023-03-02T03:16:28;24.70;;;14.40;;
14748;SDS011;7466;53.574;9.976;2023-03-02T03:18:57;19.77;;;14.30;;
14748;SDS011;7466;53.574;9.976;2023-03-02T03:21:29;25.40;;;14.40;;
14748;SDS011;7466;53.574;9.976;2023-03-02T03:23:56;21.93;;;14.07;;
14748;SDS011;7466;53.574;9.976;2023-03-02T03:26:23;21.43;;;13.87;;
14748;SDS011;7466;53.574;9.976;2023-03-02T03:28:50;23.37;;;14.80;;
14748;SDS011;7466;53.574;9.976;2023-03-02T03:31:19;31.07;;;15.13;;
14748;SDS011;7466;53.574;9.976;2023-03-02T03:33:45;23.07;;;14.60;;
14748;SDS011;7466;53.574;9.976;2023-03-02T03:36:13;22.50;;;14.47;;
14748;SDS011;7466;53.574;9.976;2023-03-02T03:38:40;22.23;;;14.80;;
14748;SDS011;7466;53.574;9.976;2023-03-02T03:41:07;21.63;;;14.20;;
14748;SDS011;7466;53.574;9.976;2023-03-02T03:43:33;23.30;;;15.33;;
14748;SDS011;7466;53.574;9.976;2023-03-02T03:46:00;23.50;;;15.13;;
14748;SDS011;7466;53.574;9.976;2023-03-02T03:48:28;20.67;;;14.33;;
14748;SDS011;7466;53.574;9.976;2023-03-02T03:50:57;22.03;;;14.73;;
14748;SDS011;7466;53.574;9.976;2023-03-02T03:53:24;22.27;;;13.73;;
14748;SDS011;7466;53.574;9.976;2023-03-02T03:55:51;18.47;;;13.17;;
14748;SDS011;7466;53.574;9.976;2023-03-02T03:58:18;21.37;;;13.47;;
14748;SDS011;7466;53.574;9.976;2023-03-02T04:00:45;21.00;;;14.03;;
14748;SDS011;7466;53.574;9.976;2023-03-02T04:03:12;22.60;;;15.00;;
14748;SDS011;7466;53.574;9.976;2023-03-02T04:05:40;24.67;;;15.13;;
14748;SDS011;7466;53.574;9.976;2023-03-02T04:08:08;21.50;;;15.83;;
14748;SDS011;7466;53.574;9.976;2023-03-02T04:10:35;23.67;;;15.50;;
14748;SDS011;7466;53.574;9.976;2023-03-02T04:13:02;21.37;;;14.73;;
14748;SDS011;7466;53.574;9.976;2023-03-02T04:15:29;19.93;;;13.90;;
14748;SDS011;7466;53.574;9.976;2023-03-02T04:17:56;22.33;;;14.87;;
14748;SDS011;7466;53.574;9.976;2023-03-02T04:20:23;20.30;;;14.37;;
14748;SDS011;7466;53.574;9.976;2023-03-02T04:22:53;23.93;;;14.87;;
14748;SDS011;7466;53.574;9.976;2023-03-02T04:25:22;23.07;;;14.37;;
14748;SDS011;7466;53.574;9.976;2023-03-02T04:27:54;23.90;;;15.00;;
14748;SDS011;7466;53.574;9.976;2023-03-02T04:30:23;20.47;;;13.73;;
14748;SDS011;7466;53.574;9.976;2023-03-02T04:32:51;26.57;;;14.67;;
14748;SDS011;7466;53.574;9.976;2023-03-02T04:35:18;23.23;;;14.63;;
14748;SDS011;7466;53.574;9.976;2023-03-02T04:37:45;21.57;;;14.17;;
14748;SDS011;7466;53.574;9.976;2023-03-02T04:40:14;23.63;;;14.17;;
14748;SDS011;7466;53.574;9.976;2023-03-02T04:42:42;22.13;;;14.70;;
14748;SDS011;7466;53.574;9.976;2023-03-02T04:45:10;21.30;;;14.47;;
14748;SDS011;7466;53.574;9.976;2023-03-02T04:47:37;26.93;;;14.60;;
14748;SDS011;7466;53.574;9.976;2023-03-02T04:50:05;24.33;;;13.47;;
14748;SDS011;7466;53.574;9.976;2023-03-02T04:52:33;31.63;;;15.93;;
14748;SDS011;7466;53.574;9.976;2023-03-02T04:55:00;25.00;;;14.07;;
14748;SDS011;7466;53.574;9.976;2023-03-02T04:57:29;24.67;;;14.77;;
14748;SDS011;7466;53.574;9.976;2023-03-02T04:59:55;34.30;;;14.97;;
14748;SDS011;7466;53.574;9.976;2023-03-02T05:02:22;28.33;;;14.87;;
14748;SDS011;7466;53.574;9.976;2023-03-02T05:04:50;24.03;;;15.33;;
14748;SDS011;7466;53.574;9.976;2023-03-02T05:07:17;30.00;;;14.87;;
14748;SDS011;7466;53.574;9.976;2023-03-02T05:09:44;25.23;;;15.00;;
14748;SDS011;7466;53.574;9.976;2023-03-02T05:12:11;30.53;;;15.83;;
14748;SDS011;7466;53.574;9.976;2023-03-02T05:14:39;28.47;;;14.43;;
14748;SDS011;7466;53.574;9.976;2023-03-02T05:17:06;31.13;;;16.77;;
14748;SDS011;7466;53.574;9.976;2023-03-02T05:19:33;25.70;;;15.93;;
14748;SDS011;7466;53.574;9.976;2023-03-02T05:21:59;29.53;;;16.13;;
14748;SDS011;7466;53.574;9.976;2023-03-02T05:24:28;32.33;;;16.00;;
14748;SDS011;7466;53.574;9.976;2023-03-02T05:26:55;28.87;;;16.83;;
14748;SDS011;7466;53.574;9.976;2023-03-02T05:29:21;29.80;;;15.97;;
14748;SDS011;7466;53.574;9.976;2023-03-02T05:31:50;27.57;;;15.73;;
14748;SDS011;7466;53.574;9.976;2023-03-02T05:34:16;31.23;;;16.40;;
14748;SDS011;7466;53.574;9.976;2023-03-02T05:36:43;30.40;;;17.20;;
14748;SDS011;7466;53.574;9.976;2023-03-02T05:39:11;30.37;;;16.77;;
14748;SDS011;7466;53.574;9.976;2023-03-02T05:41:38;27.57;;;15.73;;
14748;SDS011;7466;53.574;9.976;2023-03-02T05:44:05;30.77;;;17.73;;
14748;SDS011;7466;53.574;9.976;2023-03-02T05:46:36;27.77;;;15.83;;
14748;SDS011;7466;53.574;9.976;2023-03-02T05:49:04;30.53;;;15.60;;
14748;SDS011;7466;53.574;9.976;2023-03-02T05:51:31;29.27;;;16.03;;
14748;SDS011;7466;53.574;9.976;2023-03-02T05:53:58;30.33;;;17.27;;
14748;SDS011;7466;53.574;9.976;2023-03-02T05:56:24;27.17;;;16.37;;
14748;SDS011;7466;53.574;9.976;2023-03-02T05:58:51;26.37;;;15.63;;
14748;SDS011;7466;53.574;9.976;2023-03-02T06:03:50;29.57;;;17.63;;
14748;SDS011;7466;53.574;9.976;2023-03-02T06:06:18;28.43;;;16.40;;
14748;SDS011;7466;53.574;9.976;2023-03-02T06:08:45;45.30;;;16.83;;
14748;SDS011;7466;53.574;9.976;2023-03-02T06:11:12;47.80;;;17.90;;
14748;SDS011;7466;53.574;9.976;2023-03-02T06:13:39;31.97;;;18.23;;
14748;SDS011;7466;53.574;9.976;2023-03-02T06:16:06;32.83;;;17.60;;
14748;SDS011;7466;53.574;9.976;2023-03-02T06:18:33;34.63;;;16.93;;
14748;SDS011;7466;53.574;9.976;2023-03-02T06:21:00;34.43;;;17.53;;
14748;SDS011;7466;53.574;9.976;2023-03-02T06:23:30;35.27;;;17.07;;
14748;SDS011;7466;53.574;9.976;2023-03-02T06:25:57;30.17;;;16.53;;
14748;SDS011;7466;53.574;9.976;2023-03-02T06:28:24;29.20;;;17.03;;
14748;SDS011;7466;53.574;9.976;2023-03-02T06:30:51;30.47;;;17.60;;
14748;SDS011;7466;53.574;9.976;2023-03-02T06:33:18;40.30;;;17.33;;
14748;SDS011;7466;53.574;9.976;2023-03-02T06:35:46;30.67;;;16.93;;
14748;SDS011;7466;53.574;9.976;2023-03-02T06:38:13;41.43;;;17.77;;
14748;SDS011;7466;53.574;9.976;2023-03-02T06:40:47;32.63;;;17.17;;
14748;SDS011;7466;53.574;9.976;2023-03-02T06:43:15;35.77;;;18.10;;
14748;SDS011;7466;53.574;9.976;2023-03-02T06:45:51;32.07;;;17.53;;
14748;SDS011;7466;53.574;9.976;2023-03-02T06:48:18;29.70;;;17.57;;
14748;SDS011;7466;53.574;9.976;2023-03-02T06:50:45;45.20;;;17.27;;
14748;SDS011;7466;53.574;9.976;2023-03-02T06:53:12;31.93;;;18.10;;
14748;SDS011;7466;53.574;9.976;2023-03-02T06:55:42;33.30;;;17.97;;
14748;SDS011;7466;53.574;9.976;2023-03-02T06:58:13;35.53;;;18.60;;
14748;SDS011;7466;53.574;9.976;2023-03-02T07:00:42;39.93;;;18.10;;
14748;SDS011;7466;53.574;9.976;2023-03-02T07:03:09;31.20;;;17.13;;
14748;SDS011;7466;53.574;9.976;2023-03-02T07:05:36;38.87;;;18.70;;
14748;SDS011;7466;53.574;9.976;2023-03-02T07:08:03;40.17;;;18.73;;
14748;SDS011;7466;53.574;9.976;2023-03-02T07:10:30;35.87;;;18.73;;
14748;SDS011;7466;53.574;9.976;2023-03-02T07:12:57;34.80;;;18.50;;
14748;SDS011;7466;53.574;9.976;2023-03-02T07:15:25;31.53;;;17.53;;
14748;SDS011;7466;53.574;9.976;2023-03-02T07:17:53;35.03;;;17.70;;
14748;SDS011;7466;53.574;9.976;2023-03-02T07:20:24;29.97;;;17.33;;
14748;SDS011;7466;53.574;9.976;2023-03-02T07:22:50;35.00;;;19.03;;
14748;SDS011;7466;53.574;9.976;2023-03-02T07:25:17;41.63;;;19.10;;
14748;SDS011;7466;53.574;9.976;2023-03-02T07:27:44;35.17;;;18.57;;
14748;SDS011;7466;53.574;9.976;2023-03-02T07:30:11;35.90;;;18.37;;
14748;SDS011;7466;53.574;9.976;2023-03-02T07:32:42;39.87;;;19.57;;
14748;SDS011;7466;53.574;9.976;2023-03-02T07:35:09;40.57;;;19.10;;
14748;SDS011;7466;53.574;9.976;2023-03-02T07:37:36;45.33;;;19.93;;
14748;SDS011;7466;53.574;9.976;2023-03-02T07:40:03;38.93;;;20.50;;
14748;SDS011;7466;53.574;9.976;2023-03-02T07:42:32;35.93;;;18.87;;
14748;SDS011;7466;53.574;9.976;2023-03-02T07:44:59;48.83;;;19.77;;
14748;SDS011;7466;53.574;9.976;2023-03-02T07:47:26;36.93;;;19.37;;
14748;SDS011;7466;53.574;9.976;2023-03-02T07:49:55;33.93;;;19.70;;
14748;SDS011;7466;53.574;9.976;2023-03-02T07:52:22;41.17;;;20.33;;
14748;SDS011;7466;53.574;9.976;2023-03-02T07:54:49;44.47;;;20.07;;
14748;SDS011;7466;53.574;9.976;2023-03-02T07:57:16;37.50;;;20.00;;
14748;SDS011;7466;53.574;9.976;2023-03-02T07:59:43;41.97;;;20.77;;
14748;SDS011;7466;53.574;9.976;2023-03-02T08:02:10;39.03;;;20.07;;
14748;SDS011;7466;53.574;9.976;2023-03-02T08:04:39;37.87;;;20.07;;
14748;SDS011;7466;53.574;9.976;2023-03-02T08:07:07;45.53;;;20.77;;
14748;SDS011;7466;53.574;9.976;2023-03-02T08:09:34;45.57;;;20.03;;
14748;SDS011;7466;53.574;9.976;2023-03-02T08:12:03;37.60;;;20.03;;
14748;SDS011;7466;53.574;9.976;2023-03-02T08:14:30;32.67;;;19.43;;
14748;SDS011;7466;53.574;9.976;2023-03-02T08:16:57;35.37;;;19.53;;
14748;SDS011;7466;53.574;9.976;2023-03-02T08:19:24;33.73;;;18.80;;
14748;SDS011;7466;53.574;9.976;2023-03-02T08:21:51;30.97;;;18.17;;
14748;SDS011;7466;53.574;9.976;2023-03-02T08:24:19;34.77;;;18.83;;
14748;SDS011;7466;53.574;9.976;2023-03-02T08:26:45;40.27;;;19.80;;
14748;SDS011;7466;53.574;9.976;2023-03-02T08:29:12;32.97;;;19.27;;
14748;SDS011;7466;53.574;9.976;2023-03-02T08:31:39;32.07;;;18.33;;
14748;SDS011;7466;53.574;9.976;2023-03-02T08:34:06;32.90;;;19.93;;
14748;SDS011;7466;53.574;9.976;2023-03-02T08:36:33;35.20;;;19.13;;
14748;SDS011;7466;53.574;9.976;2023-03-02T08:39:00;37.03;;;19.33;;
14748;SDS011;7466;53.574;9.976;2023-03-02T08:41:29;32.07;;;19.03;;
14748;SDS011;7466;53.574;9.976;2023-03-02T08:43:55;34.10;;;20.23;;
14748;SDS011;7466;53.574;9.976;2023-03-02T08:46:22;34.77;;;19.07;;
14748;SDS011;7466;53.574;9.976;2023-03-02T08:48:49;31.70;;;19.33;;
14748;SDS011;7466;53.574;9.976;2023-03-02T08:51:17;36.37;;;20.43;;
14748;SDS011;7466;53.574;9.976;2023-03-02T08:53:46;40.30;;;20.57;;
14748;SDS011;7466;53.574;9.976;2023-03-02T08:56:16;35.53;;;19.87;;
14748;SDS011;7466;53.574;9.976;2023-03-02T08:58:46;34.57;;;19.87;;
14748;SDS011;7466;53.574;9.976;2023-03-02T09:01:14;40.77;;;20.50;;
14748;SDS011;7466;53.574;9.976;2023-03-02T09:03:42;37.07;;;19.27;;
14748;SDS011;7466;53.574;9.976;2023-03-02T09:06:09;34.50;;;20.53;;
14748;SDS011;7466;53.574;9.976;2023-03-02T09:08:38;35.93;;;19.73;;
14748;SDS011;7466;53.574;9.976;2023-03-02T09:11:05;30.00;;;17.90;;
14748;SDS011;7466;53.574;9.976;2023-03-02T09:13:32;35.80;;;19.67;;
14748;SDS011;7466;53.574;9.976;2023-03-02T09:16:00;33.03;;;19.40;;
14748;SDS011;7466;53.574;9.976;2023-03-02T09:18:28;31.73;;;18.10;;
14748;SDS011;7466;53.574;9.976;2023-03-02T09:20:56;37.97;;;21.10;;
14748;SDS011;7466;53.574;9.976;2023-03-02T09:23:24;33.97;;;19.57;;
14748;SDS011;7466;53.574;9.976;2023-03-02T09:25:52;33.00;;;19.37;;
14748;SDS011;7466;53.574;9.976;2023-03-02T09:28:19;32.83;;;20.67;;
14748;SDS011;7466;53.574;9.976;2023-03-02T09:30:48;30.60;;;19.07;;
14748;SDS011;7466;53.574;9.976;2023-03-02T09:33:17;31.40;;;18.63;;
14748;SDS011;7466;53.574;9.976;2023-03-02T09:35:44;29.67;;;18.83;;
14748;SDS011;7466;53.574;9.976;2023-03-02T09:38:12;30.03;;;19.10;;
14748;SDS011;7466;53.574;9.976;2023-03-02T09:40:41;31.63;;;17.37;;
14748;SDS011;7466;53.574;9.976;2023-03-02T09:43:24;29.90;;;18.00;;
14748;SDS011;7466;53.574;9.976;2023-03-02T09:46:06;25.87;;;17.20;;
14748;SDS011;7466;53.574;9.976;2023-03-02T09:48:42;30.17;;;17.77;;
14748;SDS011;7466;53.574;9.976;2023-03-02T09:51:24;25.93;;;17.00;;
14748;SDS011;7466;53.574;9.976;2023-03-02T09:53:59;28.20;;;17.60;;
14748;SDS011;7466;53.574;9.976;2023-03-02T09:56:33;24.87;;;16.77;;
14748;SDS011;7466;53.574;9.976;2023-03-02T09:59:04;27.07;;;17.13;;
14748;SDS011;7466;53.574;9.976;2023-03-02T10:01:36;30.63;;;17.57;;
14748;SDS011;7466;53.574;9.976;2023-03-02T10:04:14;34.40;;;19.83;;
14748;SDS011;7466;53.574;9.976;2023-03-02T10:06:45;29.53;;;17.57;;
14748;SDS011;7466;53.574;9.976;2023-03-02T10:09:12;27.03;;;17.47;;
14748;SDS011;7466;53.574;9.976;2023-03-02T10:11:43;29.47;;;18.70;;
14748;SDS011;7466;53.574;9.976;2023-03-02T10:14:29;28.00;;;16.77;;
14748;SDS011;7466;53.574;9.976;2023-03-02T10:17:18;30.77;;;17.33;;
14748;SDS011;7466;53.574;9.976;2023-03-02T10:19:59;25.63;;;16.30;;
14748;SDS011;7466;53.574;9.976;2023-03-02T10:22:31;24.73;;;15.47;;
14748;SDS011;7466;53.574;9.976;2023-03-02T10:25:07;27.47;;;16.77;;
14748;SDS011;7466;53.574;9.976;2023-03-02T10:27:43;23.87;;;16.43;;
14748;SDS011;7466;53.574;9.976;2023-03-02T10:30:17;23.10;;;15.30;;
14748;SDS011;7466;53.574;9.976;2023-03-02T10:32:52;24.30;;;16.37;;
14748;SDS011;7466;53.574;9.976;2023-03-02T10:35:24;24.77;;;15.83;;
14748;SDS011;7466;53.574;9.976;2023-03-02T10:37:54;24.50;;;15.70;;
14748;SDS011;7466;53.574;9.976;2023-03-02T10:40:30;25.27;;;16.43;;
14748;SDS011;7466;53.574;9.976;2023-03-02T10:43:06;23.77;;;15.77;;
14748;SDS011;7466;53.574;9.976;2023-03-02T10:45:39;21.70;;;15.40;;
14748;SDS011;7466;53.574;9.976;2023-03-02T10:48:07;24.77;;;15.87;;
14748;SDS011;7466;53.574;9.976;2023-03-02T10:50:37;22.70;;;15.90;;
14748;SDS011;7466;53.574;9.976;2023-03-02T10:53:05;21.37;;;14.60;;
14748;SDS011;7466;53.574;9.976;2023-03-02T10:55:33;20.90;;;14.60;;
14748;SDS011;7466;53.574;9.976;2023-03-02T10:58:01;23.30;;;16.13;;
14748;SDS011;7466;53.574;9.976;2023-03-02T11:00:31;21.53;;;15.50;;
14748;SDS011;7466;53.574;9.976;2023-03-02T11:03:02;22.00;;;16.57;;
14748;SDS011;7466;53.574;9.976;2023-03-02T11:05:32;27.47;;;18.10;;
14748;SDS011;7466;53.574;9.976;2023-03-02T11:08:03;30.30;;;19.47;;
14748;SDS011;7466;53.574;9.976;2023-03-02T11:10:32;28.87;;;19.10;;
14748;SDS011;7466;53.574;9.976;2023-03-02T11:13:01;29.30;;;19.07;;
14748;SDS011;7466;53.574;9.976;2023-03-02T11:15:42;28.17;;;18.80;;
14748;SDS011;7466;53.574;9.976;2023-03-02T11:18:14;24.57;;;17.40;;
14748;SDS011;7466;53.574;9.976;2023-03-02T11:20:51;25.17;;;15.77;;
14748;SDS011;7466;53.574;9.976;2023-03-02T11:23:24;24.07;;;17.07;;
14748;SDS011;7466;53.574;9.976;2023-03-02T11:25:59;24.63;;;17.63;;
14748;SDS011;7466;53.574;9.976;2023-03-02T11:28:34;22.80;;;15.83;;
14748;SDS011;7466;53.574;9.976;2023-03-02T11:31:09;23.17;;;15.80;;
14748;SDS011;7466;53.574;9.976;2023-03-02T11:33:53;20.97;;;14.63;;
14748;SDS011;7466;53.574;9.976;2023-03-02T11:36:29;20.83;;;14.67;;
14748;SDS011;7466;53.574;9.976;2023-03-02T11:39:06;20.27;;;13.93;;
14748;SDS011;7466;53.574;9.976;2023-03-02T11:41:41;21.30;;;14.40;;
14748;SDS011;7466;53.574;9.976;2023-03-02T11:44:11;23.73;;;15.53;;
14748;SDS011;7466;53.574;9.976;2023-03-02T11:46:43;24.40;;;15.70;;
14748;SDS011;7466;53.574;9.976;2023-03-02T11:49:13;23.13;;;14.83;;
14748;SDS011;7466;53.574;9.976;2023-03-02T11:51:53;18.53;;;13.60;;
14748;SDS011;7466;53.574;9.976;2023-03-02T11:54:30;19.60;;;13.93;;
14748;SDS011;7466;53.574;9.976;2023-03-02T11:57:03;17.80;;;12.50;;
14748;SDS011;7466;53.574;9.976;2023-03-02T11:59:30;18.73;;;13.30;;
14748;SDS011;7466;53.574;9.976;2023-03-02T12:01:59;18.43;;;13.27;;
14748;SDS011;7466;53.574;9.976;2023-03-02T12:04:28;16.33;;;11.40;;
14748;SDS011;7466;53.574;9.976;2023-03-02T12:06:57;19.90;;;12.60;;
14748;SDS011;7466;53.574;9.976;2023-03-02T12:09:31;15.67;;;12.00;;
14748;SDS011;7466;53.574;9.976;2023-03-02T12:14:59;19.53;;;13.40;;
14748;SDS011;7466;53.574;9.976;2023-03-02T12:17:30;18.17;;;13.43;;
14748;SDS011;7466;53.574;9.976;2023-03-02T12:22:50;21.13;;;13.70;;
14748;SDS011;7466;53.574;9.976;2023-03-02T12:25:35;20.87;;;14.03;;
14748;SDS011;7466;53.574;9.976;2023-03-02T12:31:00;22.37;;;13.10;;
14748;SDS011;7466;53.574;9.976;2023-03-02T12:33:37;16.10;;;11.53;;
14748;SDS011;7466;53.574;9.976;2023-03-02T12:38:45;16.90;;;11.00;;
14748;SDS011;7466;53.574;9.976;2023-03-02T12:41:41;15.90;;;11.40;;
14748;SDS011;7466;53.574;9.976;2023-03-02T12:44:22;19.07;;;10.90;;
14748;SDS011;7466;53.574;9.976;2023-03-02T12:47:02;16.93;;;11.57;;
14748;SDS011;7466;53.574;9.976;2023-03-02T12:49:45;13.97;;;10.77;;
14748;SDS011;7466;53.574;9.976;2023-03-02T12:52:21;15.07;;;10.57;;
14748;SDS011;7466;53.574;9.976;2023-03-02T12:55:04;14.70;;;10.57;;
14748;SDS011;7466;53.574;9.976;2023-03-02T12:57:47;14.97;;;10.90;;
14748;SDS011;7466;53.574;9.976;2023-03-02T13:00:16;13.40;;;10.40;;
14748;SDS011;7466;53.574;9.976;2023-03-02T13:02:48;15.17;;;11.00;;
14748;SDS011;7466;53.574;9.976;2023-03-02T13:05:17;12.70;;;9.87;;
14748;SDS011;7466;53.574;9.976;2023-03-02T13:07:48;13.20;;;10.20;;
14748;SDS011;7466;53.574;9.976;2023-03-02T13:10:25;15.53;;;9.97;;
14748;SDS011;7466;53.574;9.976;2023-03-02T13:12:55;16.67;;;11.10;;
14748;SDS011;7466;53.574;9.976;2023-03-02T13:15:23;12.17;;;10.07;;
14748;SDS011;7466;53.574;9.976;2023-03-02T13:17:53;14.10;;;10.87;;
14748;SDS011;7466;53.574;9.976;2023-03-02T13:20:23;13.57;;;10.30;;
14748;SDS011;7466;53.574;9.976;2023-03-02T13:22:52;13.63;;;10.30;;
14748;SDS011;7466;53.574;9.976;2023-03-02T13:25:24;12.13;;;9.40;;
14748;SDS011;7466;53.574;9.976;2023-03-02T13:27:56;13.07;;;10.43;;
14748;SDS011;7466;53.574;9.976;2023-03-02T13:30:30;13.97;;;10.57;;
14748;SDS011;7466;53.574;9.976;2023-03-02T13:32:59;15.60;;;11.17;;
14748;SDS011;7466;53.574;9.976;2023-03-02T13:35:28;16.63;;;11.03;;
14748;SDS011;7466;53.574;9.976;2023-03-02T13:37:58;13.17;;;9.50;;
14748;SDS011;7466;53.574;9.976;2023-03-02T13:40:39;10.87;;;9.30;;
14748;SDS011;7466;53.574;9.976;2023-03-02T13:46:03;10.03;;;8.50;;
14748;SDS011;7466;53.574;9.976;2023-03-02T13:48:39;10.77;;;9.13;;
14748;SDS011;7466;53.574;9.976;2023-03-02T13:51:13;10.47;;;8.50;;
14748;SDS011;7466;53.574;9.976;2023-03-02T13:53:41;12.90;;;8.80;;
14748;SDS011;7466;53.574;9.976;2023-03-02T13:56:15;11.23;;;9.30;;
14748;SDS011;7466;53.574;9.976;2023-03-02T13:58:45;11.33;;;8.80;;
14748;SDS011;7466;53.574;9.976;2023-03-02T14:01:19;10.70;;;8.80;;
14748;SDS011;7466;53.574;9.976;2023-03-02T14:03:45;13.10;;;9.70;;
14748;SDS011;7466;53.574;9.976;2023-03-02T14:06:12;9.27;;;8.27;;
14748;SDS011;7466;53.574;9.976;2023-03-02T14:08:42;10.67;;;8.93;;
14748;SDS011;7466;53.574;9.976;2023-03-02T14:11:11;10.70;;;7.93;;
14748;SDS011;7466;53.574;9.976;2023-03-02T14:13:39;11.90;;;8.10;;
14748;SDS011;7466;53.574;9.976;2023-03-02T14:16:11;8.67;;;7.77;;
14748;SDS011;7466;53.574;9.976;2023-03-02T14:18:41;10.57;;;7.80;;
14748;SDS011;7466;53.574;9.976;2023-03-02T14:21:10;13.03;;;8.67;;
14748;SDS011;7466;53.574;9.976;2023-03-02T14:23:38;9.00;;;8.10;;
14748;SDS011;7466;53.574;9.976;2023-03-02T14:26:09;10.10;;;7.90;;
14748;SDS011;7466;53.574;9.976;2023-03-02T14:28:48;8.47;;;7.57;;
14748;SDS011;7466;53.574;9.976;2023-03-02T14:31:16;9.67;;;7.87;;
14748;SDS011;7466;53.574;9.976;2023-03-02T14:33:44;8.73;;;7.53;;
14748;SDS011;7466;53.574;9.976;2023-03-02T14:36:17;9.33;;;8.17;;
14748;SDS011;7466;53.574;9.976;2023-03-02T14:38:48;8.83;;;7.93;;
14748;SDS011;7466;53.574;9.976;2023-03-02T14:41:15;9.57;;;7.67;;
14748;SDS011;7466;53.574;9.976;2023-03-02T14:43:47;10.33;;;7.07;;
14748;SDS011;7466;53.574;9.976;2023-03-02T14:46:16;8.53;;;7.60;;
14748;SDS011;7466;53.574;9.976;2023-03-02T14:48:43;10.03;;;7.57;;
14748;SDS011;7466;53.574;9.976;2023-03-02T14:51:14;11.00;;;7.37;;
14748;SDS011;7466;53.574;9.976;2023-03-02T14:53:47;6.80;;;6.07;;
14748;SDS011;7466;53.574;9.976;2023-03-02T14:56:16;7.73;;;5.87;;
14748;SDS011;7466;53.574;9.976;2023-03-02T14:58:46;6.67;;;5.97;;
14748;SDS011;7466;53.574;9.976;2023-03-02T15:01:14;9.70;;;7.00;;
14748;SDS011;7466;53.574;9.976;2023-03-02T15:03:43;8.27;;;7.40;;
14748;SDS011;7466;53.574;9.976;2023-03-02T15:06:18;9.33;;;7.60;;
14748;SDS011;7466;53.574;9.976;2023-03-02T15:08:51;9.40;;;7.57;;
14748;SDS011;7466;53.574;9.976;2023-03-02T15:11:19;8.97;;;7.07;;
14748;SDS011;7466;53.574;9.976;2023-03-02T15:13:46;9.87;;;7.50;;